createdAt,value
2018-02-07T00:01:18.106Z,28.83
2018-02-07T00:03:46.397Z,28.73
2018-02-07T00:06:14.707Z,29.20
2018-02-07T00:08:42.326Z,29.90
2018-02-07T00:11:09.857Z,29.15
2018-02-07T00:13:37.394Z,28.38
2018-02-07T00:16:06.084Z,29.12
2018-02-07T00:18:34.378Z,28.35
2018-02-07T00:21:01.914Z,27.58
2018-02-07T00:23:30.231Z,29.17
2018-02-07T00:25:57.769Z,29.42
2018-02-07T00:28:26.148Z,29.67
2018-02-07T00:30:54.559Z,30.02
2018-02-07T00:33:22.089Z,29.40
2018-02-07T00:35:50.402Z,29.17
2018-02-07T00:38:17.928Z,28.35
2018-02-07T00:40:45.590Z,29.15
2018-02-07T00:43:13.204Z,28.98
2018-02-07T00:45:40.716Z,27.95
2018-02-07T00:48:08.297Z,27.08
2018-02-07T00:50:35.845Z,28.87
2018-02-07T00:53:03.418Z,28.05
2018-02-07T00:55:31.025Z,28.55
2018-02-07T00:57:59.389Z,28.60
2018-02-07T01:00:27.694Z,29.40
2018-02-07T01:02:55.215Z,28.92
2018-02-07T01:05:22.776Z,30.45
2018-02-07T01:07:50.312Z,28.67
2018-02-07T01:10:17.857Z,29.92
2018-02-07T01:12:45.443Z,28.08
2018-02-07T01:15:12.996Z,28.12
2018-02-07T01:17:40.536Z,29.00
2018-02-07T01:20:08.839Z,29.40
2018-02-07T01:22:36.372Z,28.30
2018-02-07T01:25:04.656Z,28.08
2018-02-07T01:27:32.957Z,28.27
2018-02-07T01:30:00.516Z,29.35
2018-02-07T01:32:28.050Z,27.77
2018-02-07T01:34:55.562Z,28.87
2018-02-07T01:37:23.179Z,29.60
2018-02-07T01:39:50.727Z,28.35
2018-02-07T01:42:18.273Z,28.12
2018-02-07T01:44:45.860Z,27.95
2018-02-07T01:47:13.397Z,27.62
2018-02-07T01:49:40.929Z,29.27
2018-02-07T01:52:09.232Z,28.08
2018-02-07T01:54:36.778Z,28.85
2018-02-07T01:57:05.073Z,28.80
2018-02-07T01:59:32.684Z,29.27
2018-02-07T02:02:00.211Z,28.67
2018-02-07T02:04:27.740Z,28.17
2018-02-07T02:06:55.291Z,27.83
2018-02-07T02:09:22.828Z,28.90
2018-02-07T02:11:50.357Z,28.55
2018-02-07T02:14:17.902Z,28.25
2018-02-07T02:16:46.203Z,27.42
2018-02-07T02:19:14.515Z,27.00
2018-02-07T02:21:42.085Z,27.75
2018-02-07T02:24:09.612Z,29.12
2018-02-07T02:26:37.905Z,27.70
2018-02-07T02:29:05.432Z,29.05
2018-02-07T02:31:33.050Z,28.75
2018-02-07T02:34:00.567Z,29.00
2018-02-07T02:36:39.904Z,29.17
2018-02-07T02:39:07.613Z,27.98
2018-02-07T02:41:35.144Z,28.27
2018-02-07T02:44:03.442Z,28.75
2018-02-07T02:46:31.730Z,27.37
2018-02-07T02:49:00.048Z,26.27
2018-02-07T02:51:27.576Z,28.23
2018-02-07T02:53:55.884Z,28.80
2018-02-07T02:56:23.473Z,29.80
2018-02-07T02:58:51.002Z,29.27
2018-02-07T03:01:18.552Z,30.52
2018-02-07T03:03:46.891Z,28.02
2018-02-07T03:06:14.460Z,27.48
2018-02-07T03:08:41.984Z,28.35
2018-02-07T03:11:09.537Z,29.37
2018-02-07T03:13:37.113Z,28.65
2018-02-07T03:16:05.418Z,29.73
2018-02-07T03:18:32.951Z,30.30
2018-02-07T03:21:00.469Z,29.70
2018-02-07T03:23:27.991Z,29.70
2018-02-07T03:25:55.519Z,32.40
2018-02-07T03:28:23.816Z,32.33
2018-02-07T03:30:52.105Z,31.17
2018-02-07T03:33:19.642Z,32.65
2018-02-07T03:35:47.209Z,32.13
2018-02-07T03:38:14.792Z,31.15
2018-02-07T03:40:43.175Z,34.00
2018-02-07T03:43:11.485Z,33.17
2018-02-07T03:45:39.008Z,33.08
2018-02-07T03:48:06.536Z,31.17
2018-02-07T03:50:34.383Z,31.87
2018-02-07T03:53:02.741Z,31.37
2018-02-07T03:55:31.052Z,31.55
2018-02-07T03:57:58.614Z,33.10
2018-02-07T04:00:26.154Z,31.85
2018-02-07T04:02:55.399Z,30.35
2018-02-07T04:05:22.949Z,31.73
2018-02-07T04:07:50.472Z,31.25
2018-02-07T04:10:18.014Z,29.92
2018-02-07T04:12:45.531Z,31.27
2018-02-07T04:15:13.068Z,31.27
2018-02-07T04:17:40.608Z,32.53
2018-02-07T04:20:08.159Z,33.75
2018-02-07T04:22:35.702Z,32.10
2018-02-07T04:25:03.240Z,32.60
2018-02-07T04:27:31.537Z,31.65
2018-02-07T04:29:59.848Z,31.40
2018-02-07T04:32:27.424Z,32.05
2018-02-07T04:34:55.069Z,31.77
2018-02-07T04:37:22.624Z,32.33
2018-02-07T04:39:50.220Z,30.92
2018-02-07T04:42:17.748Z,32.95
2018-02-07T04:44:45.293Z,32.95
2018-02-07T04:47:12.844Z,31.33
2018-02-07T04:49:40.384Z,33.28
2018-02-07T04:52:07.884Z,33.40
2018-02-07T04:54:35.404Z,33.15
2018-02-07T04:57:02.927Z,32.25
2018-02-07T04:59:31.248Z,31.35
2018-02-07T05:01:58.854Z,32.45
2018-02-07T05:04:26.439Z,31.10
2018-02-07T05:06:54.736Z,32.78
2018-02-07T05:09:22.264Z,33.90
2018-02-07T05:11:49.829Z,31.33
2018-02-07T05:14:17.370Z,31.92
2018-02-07T05:16:44.892Z,33.17
2018-02-07T05:19:12.411Z,34.88
2018-02-07T05:21:39.930Z,36.03
2018-02-07T05:24:07.542Z,34.88
2018-02-07T05:26:35.129Z,35.38
2018-02-07T05:29:02.647Z,33.17
2018-02-07T05:31:30.198Z,35.38
2018-02-07T05:33:57.748Z,38.78
2018-02-07T05:36:26.084Z,69.93
2018-02-07T05:38:53.624Z,52.60
2018-02-07T05:41:21.173Z,52.62
2018-02-07T05:43:48.749Z,47.33
2018-02-07T05:46:16.300Z,39.70
2018-02-07T05:48:43.847Z,40.83
2018-02-07T05:51:12.151Z,38.58
2018-02-07T05:53:39.683Z,37.30
2018-02-07T05:56:07.288Z,36.20
2018-02-07T05:58:34.825Z,35.50
2018-02-07T06:01:03.169Z,37.00
2018-02-07T06:03:31.179Z,35.83
2018-02-07T06:05:58.840Z,36.35
2018-02-07T06:08:26.376Z,35.47
2018-02-07T06:10:53.899Z,36.33
2018-02-07T06:13:21.472Z,35.33
2018-02-07T06:15:49.002Z,34.00
2018-02-07T06:18:16.562Z,36.13
2018-02-07T06:20:44.076Z,37.33
2018-02-07T06:23:11.598Z,37.42
2018-02-07T06:25:39.201Z,35.40
2018-02-07T06:28:06.722Z,37.88
2018-02-07T06:30:34.257Z,37.38
2018-02-07T06:33:01.797Z,36.92
2018-02-07T06:35:29.330Z,36.15
2018-02-07T06:37:57.744Z,36.75
2018-02-07T06:40:25.260Z,38.25
2018-02-07T06:42:52.789Z,38.47
2018-02-07T06:45:20.400Z,37.60
2018-02-07T06:47:47.923Z,38.22
2018-02-07T06:50:15.497Z,39.03
2018-02-07T06:52:43.120Z,39.15
2018-02-07T06:55:11.423Z,45.28
2018-02-07T06:57:38.979Z,40.17
2018-02-07T07:00:06.490Z,38.58
2018-02-07T07:02:34.047Z,37.85
2018-02-07T07:05:01.589Z,35.83
2018-02-07T07:07:29.120Z,34.13
2018-02-07T07:09:57.425Z,34.88
2018-02-07T07:12:24.961Z,36.58
2018-02-07T07:14:53.285Z,38.60
2018-02-07T07:17:20.823Z,37.95
2018-02-07T07:19:49.121Z,41.37
2018-02-07T07:22:16.636Z,38.63
2018-02-07T07:24:44.165Z,36.78
2018-02-07T07:27:11.734Z,37.65
2018-02-07T07:29:39.258Z,38.38
2018-02-07T07:32:07.608Z,37.63
2018-02-07T07:34:35.093Z,38.25
2018-02-07T07:37:02.616Z,35.72
2018-02-07T07:39:30.235Z,38.08
2018-02-07T07:41:58.730Z,38.47
2018-02-07T07:44:27.031Z,37.83
2018-02-07T07:46:54.561Z,38.83
2018-02-07T07:49:22.857Z,37.58
2018-02-07T07:51:51.176Z,37.72
2018-02-07T07:54:18.708Z,40.28
2018-02-07T07:56:47.004Z,37.55
2018-02-07T07:59:14.536Z,35.50
2018-02-07T08:01:42.060Z,38.03
2018-02-07T08:04:09.640Z,41.33
2018-02-07T08:06:37.168Z,40.50
2018-02-07T08:09:04.678Z,36.20
2018-02-07T08:11:32.201Z,39.38
2018-02-07T08:13:59.739Z,37.92
2018-02-07T08:16:28.060Z,39.67
2018-02-07T08:18:55.631Z,38.63
2018-02-07T08:21:23.182Z,38.25
2018-02-07T08:23:50.714Z,36.03
2018-02-07T08:26:19.076Z,34.88
2018-02-07T08:28:46.628Z,36.85
2018-02-07T08:31:14.164Z,34.25
2018-02-07T08:33:41.714Z,34.40
2018-02-07T08:36:09.248Z,35.05
2018-02-07T08:38:37.553Z,40.00
2018-02-07T08:41:05.881Z,41.22
2018-02-07T08:43:33.470Z,36.03
2018-02-07T08:46:01.025Z,36.50
2018-02-07T08:48:28.549Z,32.40
2018-02-07T08:50:56.080Z,33.65
2018-02-07T08:53:24.392Z,36.47
2018-02-07T08:55:51.943Z,36.75
2018-02-07T08:58:19.568Z,34.58
2018-02-07T09:00:47.106Z,31.70
2018-02-07T09:03:14.860Z,32.45
2018-02-07T09:05:42.404Z,31.48
2018-02-07T09:08:10.688Z,35.80
2018-02-07T09:10:38.226Z,32.13
2018-02-07T09:13:05.870Z,32.50
2018-02-07T09:15:33.400Z,31.00
2018-02-07T09:18:01.229Z,30.42
2018-02-07T09:20:28.782Z,30.50
2018-02-07T09:22:56.304Z,30.70
2018-02-07T09:25:23.832Z,29.73
2018-02-07T09:27:51.361Z,31.12
2018-02-07T09:30:20.096Z,29.27
2018-02-07T09:32:48.393Z,30.40
2018-02-07T09:35:15.924Z,29.98
2018-02-07T09:37:43.486Z,29.30
2018-02-07T09:40:11.011Z,31.80
2018-02-07T09:42:38.621Z,30.88
2018-02-07T09:45:06.259Z,30.05
2018-02-07T09:47:33.963Z,31.50
2018-02-07T09:50:01.676Z,30.65
2018-02-07T09:52:29.243Z,29.98
2018-02-07T09:54:57.635Z,30.27
2018-02-07T09:57:25.187Z,28.85
2018-02-07T09:59:52.732Z,30.17
2018-02-07T10:02:21.035Z,30.92
2018-02-07T10:04:48.581Z,30.17
2018-02-07T10:07:16.888Z,31.15
2018-02-07T10:09:44.412Z,31.65
2018-02-07T10:12:12.289Z,31.25
2018-02-07T10:14:40.592Z,30.58
2018-02-07T10:17:08.137Z,30.88
2018-02-07T10:19:36.441Z,30.08
2018-02-07T10:22:04.554Z,30.50
2018-02-07T10:24:32.144Z,31.35
2018-02-07T10:26:59.664Z,30.52
2018-02-07T10:29:27.216Z,29.70
2018-02-07T10:31:54.738Z,29.23
2018-02-07T10:34:22.279Z,29.00
2018-02-07T10:36:49.812Z,29.95
2018-02-07T10:39:18.110Z,31.52
2018-02-07T10:41:45.637Z,28.40
2018-02-07T10:44:13.168Z,32.42
2018-02-07T10:46:41.616Z,30.27
2018-02-07T10:49:09.473Z,30.20
2018-02-07T10:51:37.785Z,30.00
2018-02-07T10:54:05.440Z,32.40
2018-02-07T10:56:32.948Z,29.40
2018-02-07T10:59:00.489Z,31.55
2018-02-07T11:01:28.157Z,31.00
2018-02-07T11:03:55.687Z,31.42
2018-02-07T11:06:23.986Z,30.77
2018-02-07T11:08:51.524Z,31.27
2018-02-07T11:11:19.849Z,30.48
2018-02-07T11:13:47.372Z,31.73
2018-02-07T11:16:15.667Z,30.73
2018-02-07T11:18:43.245Z,31.98
2018-02-07T11:21:10.773Z,31.45
2018-02-07T11:23:38.343Z,30.73
2018-02-07T11:26:06.657Z,31.62
2018-02-07T11:28:34.205Z,32.00
2018-02-07T11:31:02.504Z,31.52
2018-02-07T11:33:30.021Z,29.83
2018-02-07T11:35:57.866Z,32.22
2018-02-07T11:38:25.374Z,33.03
2018-02-07T11:40:53.667Z,31.98
2018-02-07T11:43:21.973Z,33.58
2018-02-07T11:45:49.484Z,33.13
2018-02-07T11:48:17.063Z,31.77
2018-02-07T11:50:44.611Z,33.10
2018-02-07T11:53:12.272Z,31.45
2018-02-07T11:55:39.912Z,31.92
2018-02-07T11:58:07.424Z,31.40
2018-02-07T12:00:34.994Z,30.73
2018-02-07T12:03:02.631Z,32.58
2018-02-07T12:05:30.169Z,31.27
2018-02-07T12:07:57.700Z,33.08
2018-02-07T12:10:26.001Z,32.72
2018-02-07T12:12:53.640Z,32.35
2018-02-07T12:15:22.014Z,30.92
2018-02-07T12:17:49.528Z,29.98
2018-02-07T12:20:17.063Z,32.63
2018-02-07T12:22:45.344Z,33.33
2018-02-07T12:25:13.671Z,31.77
2018-02-07T12:27:41.260Z,32.05
2018-02-07T12:30:08.798Z,31.73
2018-02-07T12:32:36.360Z,32.47
2018-02-07T12:35:03.900Z,33.15
2018-02-07T12:37:32.322Z,31.65
2018-02-07T12:39:59.840Z,31.83
2018-02-07T12:42:28.141Z,32.03
2018-02-07T12:44:55.713Z,33.53
2018-02-07T12:47:23.266Z,33.13
2018-02-07T12:49:50.835Z,32.10
2018-02-07T12:52:19.125Z,30.15
2018-02-07T12:55:00.942Z,30.80
2018-02-07T13:07:13.528Z,29.17
2018-02-07T13:09:41.044Z,29.83
2018-02-07T13:12:08.613Z,29.83
2018-02-07T13:14:36.142Z,33.45
2018-02-07T13:17:03.664Z,31.60
2018-02-07T13:19:32.071Z,30.83
2018-02-07T13:21:59.688Z,30.70
2018-02-07T13:24:27.210Z,30.98
2018-02-07T13:26:54.749Z,30.80
2018-02-07T13:29:23.060Z,31.10
2018-02-07T13:31:50.688Z,32.63
2018-02-07T13:34:19.048Z,30.33
2018-02-07T13:36:46.600Z,31.12
2018-02-07T13:39:14.181Z,29.33
2018-02-07T13:41:41.735Z,32.08
2018-02-07T13:44:09.293Z,30.25
2018-02-07T13:46:36.827Z,30.60
2018-02-07T13:49:04.451Z,31.65
2018-02-07T13:51:31.977Z,30.80
2018-02-07T13:53:59.522Z,31.37
2018-02-07T13:56:27.092Z,30.12
2018-02-07T13:58:54.622Z,30.95
2018-02-07T14:01:22.925Z,32.15
2018-02-07T14:03:51.219Z,30.30
2018-02-07T14:06:18.750Z,33.85
2018-02-07T14:08:46.342Z,30.73
2018-02-07T14:11:13.916Z,32.83
2018-02-07T14:13:41.444Z,30.48
2018-02-07T14:16:09.735Z,30.40
2018-02-07T14:18:38.315Z,30.05
2018-02-07T14:21:05.862Z,30.73
2018-02-07T14:23:33.400Z,30.30
2018-02-07T14:26:00.997Z,30.15
2018-02-07T14:28:28.532Z,30.65
2018-02-07T14:30:56.066Z,30.52
2018-02-07T14:33:24.342Z,29.48
2018-02-07T14:35:52.638Z,30.50
2018-02-07T14:38:20.218Z,31.17
2018-02-07T14:40:47.748Z,31.15
2018-02-07T14:43:16.049Z,30.75
2018-02-07T14:45:43.597Z,29.20
2018-02-07T14:48:12.007Z,30.77
2018-02-07T14:50:39.514Z,30.83
2018-02-07T14:53:07.077Z,29.90
2018-02-07T14:55:34.617Z,30.95
2018-02-07T14:58:02.165Z,36.13
2018-02-07T15:00:29.701Z,29.52
2018-02-07T15:02:58.001Z,29.73
2018-02-07T15:05:26.301Z,36.03
2018-02-07T15:07:53.849Z,30.85
2018-02-07T15:10:22.193Z,30.12
2018-02-07T15:12:49.710Z,29.77
2018-02-07T15:15:17.230Z,29.05
2018-02-07T15:17:44.768Z,30.27
2018-02-07T15:20:12.296Z,32.05
2018-02-07T15:22:39.914Z,30.23
2018-02-07T15:25:07.433Z,29.58
2018-02-07T15:27:34.924Z,29.08
2018-02-07T15:30:02.478Z,27.92
2018-02-07T15:32:30.039Z,30.90
2018-02-07T15:34:57.672Z,30.12
2018-02-07T15:37:25.969Z,27.87
2018-02-07T15:39:54.091Z,30.55
2018-02-07T15:42:21.618Z,30.33
2018-02-07T15:44:49.150Z,31.83
2018-02-07T15:47:16.759Z,30.42
2018-02-07T15:49:44.724Z,35.30
2018-02-07T15:52:12.264Z,32.38
2018-02-07T15:54:40.555Z,30.90
2018-02-07T15:57:08.873Z,30.23
2018-02-07T15:59:36.421Z,29.92
2018-02-07T16:02:04.369Z,30.52
2018-02-07T16:04:32.718Z,28.42
2018-02-07T16:07:00.346Z,29.05
2018-02-07T16:09:27.881Z,30.52
2018-02-07T16:11:56.188Z,30.88
2018-02-07T16:14:23.760Z,30.30
2018-02-07T16:16:51.313Z,30.70
2018-02-07T16:19:18.848Z,28.38
2018-02-07T16:21:46.446Z,30.60
2018-02-07T16:24:14.020Z,30.42
2018-02-07T16:26:41.938Z,31.77
2018-02-07T16:29:09.482Z,30.83
2018-02-07T16:31:37.029Z,32.55
2018-02-07T16:34:04.709Z,32.47
2018-02-07T16:36:32.254Z,32.30
2018-02-07T16:38:59.812Z,32.10
2018-02-07T16:41:27.500Z,33.33
2018-02-07T16:43:55.028Z,35.08
2018-02-07T16:46:23.324Z,34.38
2018-02-07T16:48:51.605Z,32.15
2018-02-07T16:51:19.942Z,33.47
2018-02-07T16:53:47.477Z,33.88
2018-02-07T16:56:15.077Z,32.45
2018-02-07T16:58:43.445Z,33.28
2018-02-07T17:01:10.973Z,31.95
2018-02-07T17:03:38.530Z,31.83
2018-02-07T17:06:06.826Z,33.42
2018-02-07T17:08:34.353Z,32.97
2018-02-07T17:11:01.860Z,34.70
2018-02-07T17:13:29.420Z,38.10
2018-02-07T17:15:57.105Z,43.67
2018-02-07T17:18:24.632Z,39.78
2018-02-07T17:20:52.927Z,34.88
2018-02-07T17:23:21.205Z,35.67
2018-02-07T17:25:49.510Z,33.67
2018-02-07T17:28:17.077Z,32.65
2018-02-07T17:30:44.663Z,32.08
2018-02-07T17:33:12.200Z,34.92
2018-02-07T17:35:39.728Z,36.95
2018-02-07T17:38:07.266Z,38.53
2018-02-07T17:40:34.856Z,39.78
2018-02-07T17:43:03.213Z,38.40
2018-02-07T17:45:30.811Z,38.85
2018-02-07T17:47:58.414Z,37.80
2018-02-07T17:50:26.082Z,40.00
2018-02-07T17:52:53.633Z,40.50
2018-02-07T17:55:21.975Z,43.03
2018-02-07T17:57:49.932Z,39.90
2018-02-07T18:00:18.373Z,37.15
2018-02-07T18:02:46.699Z,35.28
2018-02-07T18:05:14.246Z,36.88
2018-02-07T18:07:41.796Z,36.17
2018-02-07T18:10:09.339Z,36.92
2018-02-07T18:12:36.851Z,35.15
2018-02-07T18:15:04.414Z,36.28
2018-02-07T18:17:32.289Z,35.85
2018-02-07T18:19:59.812Z,35.25
2018-02-07T18:22:28.141Z,36.83
2018-02-07T18:24:55.699Z,36.63
2018-02-07T18:27:23.228Z,37.15
2018-02-07T18:29:51.881Z,38.05
2018-02-07T18:32:20.181Z,40.08
2018-02-07T18:34:47.736Z,38.42
2018-02-07T18:37:15.256Z,55.33
2018-02-07T18:39:42.841Z,43.83
2018-02-07T18:42:10.389Z,43.35
2018-02-07T18:44:37.951Z,38.08
2018-02-07T18:47:05.523Z,37.78
2018-02-07T18:49:33.110Z,39.65
2018-02-07T18:52:00.654Z,38.67
2018-02-07T18:54:28.285Z,40.12
2018-02-07T18:56:55.817Z,36.75
2018-02-07T18:59:23.371Z,39.63
2018-02-07T19:01:51.691Z,35.70
2018-02-07T19:04:19.240Z,37.28
2018-02-07T19:06:46.798Z,38.58
2018-02-07T19:09:15.097Z,38.28
2018-02-07T19:11:43.534Z,37.38
2018-02-07T19:14:11.083Z,39.85
2018-02-07T19:16:38.649Z,38.75
2018-02-07T19:19:06.286Z,38.90
2018-02-07T19:21:33.829Z,38.95
2018-02-07T19:24:01.441Z,37.58
2018-02-07T19:26:29.770Z,40.38
2018-02-07T19:28:57.349Z,39.80
2018-02-07T19:31:24.931Z,39.38
2018-02-07T19:33:52.522Z,39.38
2018-02-07T19:36:20.836Z,40.65
2018-02-07T19:38:48.369Z,40.47
2018-02-07T19:41:15.909Z,39.55
2018-02-07T19:43:43.942Z,39.75
2018-02-07T19:46:11.503Z,38.55
2018-02-07T19:48:39.073Z,39.17
2018-02-07T19:51:06.619Z,38.55
2018-02-07T19:53:34.406Z,39.15
2018-02-07T19:56:01.993Z,47.10
2018-02-07T19:58:29.584Z,44.05
2018-02-07T20:00:57.143Z,44.17
2018-02-07T20:03:24.717Z,43.80
2018-02-07T20:05:52.265Z,42.85
2018-02-07T20:08:19.838Z,46.17
2018-02-07T20:10:47.447Z,43.92
2018-02-07T20:13:15.009Z,48.00
2018-02-07T20:15:43.327Z,52.38
2018-02-07T20:18:10.884Z,51.08
2018-02-07T20:20:38.492Z,52.78
2018-02-07T20:23:06.031Z,51.08
2018-02-07T20:25:33.621Z,52.42
2018-02-07T20:28:01.156Z,53.95
2018-02-07T20:30:28.717Z,50.65
2018-02-07T20:32:56.413Z,52.33
2018-02-07T20:35:23.948Z,49.33
2018-02-07T20:37:51.503Z,50.67
2018-02-07T20:40:19.265Z,49.97
2018-02-07T20:42:46.828Z,52.55
2018-02-07T20:45:14.439Z,53.35
2018-02-07T20:47:41.969Z,52.17
2018-02-07T20:50:09.531Z,55.78
2018-02-07T20:52:37.053Z,58.28
2018-02-07T20:55:04.606Z,57.20
2018-02-07T20:57:32.180Z,56.72
2018-02-07T20:59:59.709Z,49.28
2018-02-07T21:02:27.255Z,47.40
2018-02-07T21:04:54.836Z,50.67
2018-02-07T21:07:22.432Z,52.65
2018-02-07T21:09:49.977Z,54.50
2018-02-07T21:12:17.519Z,50.53
2018-02-07T21:14:45.221Z,52.42
2018-02-07T21:17:12.762Z,53.83
2018-02-07T21:19:40.280Z,47.70
2018-02-07T21:22:08.617Z,51.17
2018-02-07T21:24:36.165Z,51.67
2018-02-07T21:27:03.723Z,51.45
2018-02-07T21:29:31.292Z,50.38
2018-02-07T21:31:58.853Z,51.28
2018-02-07T21:34:26.428Z,53.90
2018-02-07T21:36:53.971Z,48.92
2018-02-07T21:39:22.291Z,47.10
2018-02-07T21:41:49.882Z,47.58
2018-02-07T21:44:17.441Z,49.80
2018-02-07T21:46:45.013Z,50.28
2018-02-07T21:49:12.558Z,49.20
2018-02-07T21:51:40.116Z,47.42
2018-02-07T21:54:07.662Z,50.08
2018-02-07T21:56:35.289Z,45.55
2018-02-07T21:59:02.864Z,46.58
2018-02-07T22:01:31.245Z,47.50
2018-02-07T22:03:58.786Z,48.72
2018-02-07T22:06:26.341Z,47.08
2018-02-07T22:08:53.895Z,48.67
2018-02-07T22:11:21.432Z,49.13
2018-02-07T22:13:48.998Z,46.60
2018-02-07T22:16:16.588Z,44.58
2018-02-07T22:18:44.148Z,48.47
2018-02-07T22:21:11.756Z,48.08
2018-02-07T22:23:39.297Z,49.70
2018-02-07T22:26:06.930Z,48.28
2018-02-07T22:28:34.481Z,48.08
2018-02-07T22:31:02.785Z,48.80
2018-02-07T22:33:30.456Z,49.83
2018-02-07T22:35:57.977Z,48.03
2018-02-07T22:38:25.568Z,46.92
2018-02-07T22:40:53.887Z,49.30
2018-02-07T22:43:21.515Z,49.70
2018-02-07T22:45:49.893Z,48.58
2018-02-07T22:48:18.186Z,50.47
2018-02-07T22:50:46.507Z,50.72
2018-02-07T22:53:14.047Z,51.92
2018-02-07T22:55:41.576Z,50.70
2018-02-07T22:58:09.193Z,48.40
2018-02-07T23:00:36.733Z,51.60
2018-02-07T23:03:04.293Z,53.33
2018-02-07T23:05:32.591Z,49.63
2018-02-07T23:08:00.095Z,47.08
2018-02-07T23:10:27.744Z,52.47
2018-02-07T23:12:55.300Z,54.78
2018-02-07T23:15:22.923Z,54.65
2018-02-07T23:17:50.447Z,51.60
2018-02-07T23:20:17.982Z,48.13
2018-02-07T23:22:45.523Z,54.17
2018-02-07T23:25:13.070Z,51.70
2018-02-07T23:27:40.629Z,49.50
2018-02-07T23:30:08.169Z,48.35
2018-02-07T23:32:35.713Z,48.05
2018-02-07T23:35:03.235Z,49.83
2018-02-07T23:37:30.769Z,51.97
2018-02-07T23:39:58.706Z,48.33
2018-02-07T23:42:26.251Z,49.72
2018-02-07T23:44:54.551Z,49.90
2018-02-07T23:47:22.161Z,49.83
2018-02-07T23:49:49.672Z,49.42
2018-02-07T23:52:18.007Z,51.72
2018-02-07T23:54:45.540Z,50.58
2018-02-07T23:57:13.068Z,50.63
2018-02-07T23:59:40.599Z,50.40
